sensor_id;sensor_type;location;lat;lon;timestamp;P1;durP1;ratioP1;P2;durP2;ratioP2
72926;SDS011;61071;51.618;19.388;2022-08-26T00:00:32;61.50;;;16.25;;
72926;SDS011;61071;51.618;19.388;2022-08-26T00:02:58;33.30;;;13.65;;
72926;SDS011;61071;51.618;19.388;2022-08-26T00:05:25;49.75;;;14.90;;
72926;SDS011;61071;51.618;19.388;2022-08-26T00:07:51;41.40;;;14.45;;
72926;SDS011;61071;51.618;19.388;2022-08-26T00:10:17;38.75;;;12.60;;
72926;SDS011;61071;51.618;19.388;2022-08-26T00:12:44;37.00;;;12.00;;
72926;SDS011;61071;51.618;19.388;2022-08-26T00:15:11;24.45;;;9.38;;
72926;SDS011;61071;51.618;19.388;2022-08-26T00:17:41;21.55;;;8.93;;
72926;SDS011;61071;51.618;19.388;2022-08-26T00:20:07;20.33;;;7.75;;
72926;SDS011;61071;51.618;19.388;2022-08-26T00:22:35;25.65;;;9.05;;
72926;SDS011;61071;51.618;19.388;2022-08-26T00:25:02;26.45;;;9.95;;
72926;SDS011;61071;51.618;19.388;2022-08-26T00:27:30;24.88;;;8.15;;
72926;SDS011;61071;51.618;19.388;2022-08-26T00:29:58;20.13;;;8.00;;
72926;SDS011;61071;51.618;19.388;2022-08-26T00:32:26;15.02;;;7.15;;
72926;SDS011;61071;51.618;19.388;2022-08-26T00:34:52;20.70;;;7.65;;
72926;SDS011;61071;51.618;19.388;2022-08-26T00:37:18;20.25;;;7.43;;
72926;SDS011;61071;51.618;19.388;2022-08-26T00:39:44;11.65;;;5.68;;
72926;SDS011;61071;51.618;19.388;2022-08-26T00:42:10;14.95;;;5.70;;
72926;SDS011;61071;51.618;19.388;2022-08-26T00:44:35;14.90;;;6.32;;
72926;SDS011;61071;51.618;19.388;2022-08-26T00:47:02;12.57;;;5.97;;
72926;SDS011;61071;51.618;19.388;2022-08-26T00:49:38;15.93;;;6.72;;
72926;SDS011;61071;51.618;19.388;2022-08-26T00:52:14;22.90;;;7.30;;
72926;SDS011;61071;51.618;19.388;2022-08-26T00:55:06;23.75;;;8.45;;
72926;SDS011;61071;51.618;19.388;2022-08-26T00:57:51;12.95;;;6.82;;
72926;SDS011;61071;51.618;19.388;2022-08-26T01:00:21;15.57;;;6.97;;
72926;SDS011;61071;51.618;19.388;2022-08-26T01:02:50;28.77;;;7.63;;
72926;SDS011;61071;51.618;19.388;2022-08-26T01:05:17;15.77;;;7.07;;
72926;SDS011;61071;51.618;19.388;2022-08-26T01:07:44;16.88;;;7.53;;
72926;SDS011;61071;51.618;19.388;2022-08-26T01:10:12;22.60;;;7.38;;
72926;SDS011;61071;51.618;19.388;2022-08-26T01:12:44;15.63;;;6.45;;
72926;SDS011;61071;51.618;19.388;2022-08-26T01:15:18;16.50;;;6.45;;
72926;SDS011;61071;51.618;19.388;2022-08-26T01:17:58;13.73;;;5.30;;
72926;SDS011;61071;51.618;19.388;2022-08-26T01:20:30;20.10;;;5.30;;
72926;SDS011;61071;51.618;19.388;2022-08-26T01:23:33;19.40;;;6.15;;
72926;SDS011;61071;51.618;19.388;2022-08-26T01:26:06;11.88;;;6.40;;
72926;SDS011;61071;51.618;19.388;2022-08-26T01:28:36;14.73;;;6.85;;
72926;SDS011;61071;51.618;19.388;2022-08-26T01:31:04;15.07;;;6.10;;
72926;SDS011;61071;51.618;19.388;2022-08-26T01:33:42;17.08;;;6.85;;
72926;SDS011;61071;51.618;19.388;2022-08-26T01:36:17;20.50;;;7.18;;
72926;SDS011;61071;51.618;19.388;2022-08-26T01:38:43;23.45;;;6.72;;
72926;SDS011;61071;51.618;19.388;2022-08-26T01:41:09;17.73;;;6.63;;
72926;SDS011;61071;51.618;19.388;2022-08-26T01:43:41;12.88;;;5.85;;
72926;SDS011;61071;51.618;19.388;2022-08-26T01:46:12;12.98;;;5.95;;
72926;SDS011;61071;51.618;19.388;2022-08-26T01:48:40;13.63;;;6.25;;
72926;SDS011;61071;51.618;19.388;2022-08-26T01:51:09;23.42;;;5.78;;
72926;SDS011;61071;51.618;19.388;2022-08-26T01:53:38;18.48;;;6.47;;
72926;SDS011;61071;51.618;19.388;2022-08-26T01:56:05;16.77;;;6.35;;
72926;SDS011;61071;51.618;19.388;2022-08-26T01:58:39;15.88;;;6.75;;
72926;SDS011;61071;51.618;19.388;2022-08-26T02:01:09;19.55;;;6.82;;
72926;SDS011;61071;51.618;19.388;2022-08-26T02:03:38;19.83;;;6.57;;
72926;SDS011;61071;51.618;19.388;2022-08-26T02:06:15;21.30;;;6.57;;
72926;SDS011;61071;51.618;19.388;2022-08-26T02:08:44;17.30;;;5.60;;
72926;SDS011;61071;51.618;19.388;2022-08-26T02:11:16;13.85;;;6.15;;
72926;SDS011;61071;51.618;19.388;2022-08-26T02:13:44;12.40;;;5.97;;
72926;SDS011;61071;51.618;19.388;2022-08-26T02:16:19;12.77;;;5.63;;
72926;SDS011;61071;51.618;19.388;2022-08-26T02:18:51;15.25;;;6.43;;
72926;SDS011;61071;51.618;19.388;2022-08-26T02:21:19;17.10;;;6.50;;
72926;SDS011;61071;51.618;19.388;2022-08-26T02:23:45;19.92;;;6.57;;
72926;SDS011;61071;51.618;19.388;2022-08-26T02:26:15;17.65;;;7.55;;
72926;SDS011;61071;51.618;19.388;2022-08-26T02:28:59;14.13;;;6.95;;
72926;SDS011;61071;51.618;19.388;2022-08-26T02:31:30;79.20;;;29.33;;
72926;SDS011;61071;51.618;19.388;2022-08-26T02:34:10;164.45;;;70.80;;
72926;SDS011;61071;51.618;19.388;2022-08-26T02:36:43;93.93;;;37.58;;
72926;SDS011;61071;51.618;19.388;2022-08-26T02:39:09;111.85;;;41.40;;
72926;SDS011;61071;51.618;19.388;2022-08-26T02:41:35;68.43;;;25.90;;
72926;SDS011;61071;51.618;19.388;2022-08-26T02:44:01;46.38;;;19.63;;
72926;SDS011;61071;51.618;19.388;2022-08-26T02:46:27;43.55;;;19.05;;
72926;SDS011;61071;51.618;19.388;2022-08-26T02:48:56;38.95;;;15.75;;
72926;SDS011;61071;51.618;19.388;2022-08-26T02:51:22;20.20;;;9.65;;
72926;SDS011;61071;51.618;19.388;2022-08-26T02:53:48;30.92;;;13.40;;
72926;SDS011;61071;51.618;19.388;2022-08-26T02:56:14;23.38;;;9.20;;
72926;SDS011;61071;51.618;19.388;2022-08-26T02:58:39;34.28;;;12.75;;
72926;SDS011;61071;51.618;19.388;2022-08-26T03:01:05;27.88;;;12.52;;
72926;SDS011;61071;51.618;19.388;2022-08-26T03:03:31;27.13;;;11.00;;
72926;SDS011;61071;51.618;19.388;2022-08-26T03:05:57;29.95;;;11.70;;
72926;SDS011;61071;51.618;19.388;2022-08-26T03:08:22;30.75;;;12.80;;
72926;SDS011;61071;51.618;19.388;2022-08-26T03:10:48;22.77;;;9.95;;
72926;SDS011;61071;51.618;19.388;2022-08-26T03:13:15;23.85;;;8.70;;
72926;SDS011;61071;51.618;19.388;2022-08-26T03:15:42;17.45;;;7.53;;
72926;SDS011;61071;51.618;19.388;2022-08-26T03:18:07;13.60;;;6.97;;
72926;SDS011;61071;51.618;19.388;2022-08-26T03:20:33;16.95;;;7.35;;
72926;SDS011;61071;51.618;19.388;2022-08-26T03:22:59;12.38;;;6.88;;
72926;SDS011;61071;51.618;19.388;2022-08-26T03:25:25;11.43;;;6.50;;
72926;SDS011;61071;51.618;19.388;2022-08-26T03:27:51;11.43;;;6.45;;
72926;SDS011;61071;51.618;19.388;2022-08-26T03:30:18;14.43;;;5.97;;
72926;SDS011;61071;51.618;19.388;2022-08-26T03:33:03;15.02;;;5.53;;
72926;SDS011;61071;51.618;19.388;2022-08-26T03:35:30;11.70;;;6.00;;
72926;SDS011;61071;51.618;19.388;2022-08-26T03:37:58;15.02;;;6.32;;
72926;SDS011;61071;51.618;19.388;2022-08-26T03:40:25;14.25;;;5.78;;
72926;SDS011;61071;51.618;19.388;2022-08-26T03:42:51;17.98;;;6.18;;
72926;SDS011;61071;51.618;19.388;2022-08-26T03:45:17;17.38;;;5.70;;
72926;SDS011;61071;51.618;19.388;2022-08-26T03:47:45;13.70;;;5.35;;
72926;SDS011;61071;51.618;19.388;2022-08-26T03:50:13;15.02;;;6.00;;
72926;SDS011;61071;51.618;19.388;2022-08-26T03:55:10;15.73;;;5.88;;
72926;SDS011;61071;51.618;19.388;2022-08-26T03:57:36;21.50;;;6.88;;
72926;SDS011;61071;51.618;19.388;2022-08-26T04:00:03;17.40;;;5.97;;
72926;SDS011;61071;51.618;19.388;2022-08-26T04:02:31;12.32;;;5.78;;
72926;SDS011;61071;51.618;19.388;2022-08-26T04:04:57;18.05;;;6.53;;
72926;SDS011;61071;51.618;19.388;2022-08-26T04:07:23;11.95;;;5.95;;
72926;SDS011;61071;51.618;19.388;2022-08-26T04:09:53;17.52;;;5.40;;
72926;SDS011;61071;51.618;19.388;2022-08-26T04:12:23;15.85;;;5.47;;
72926;SDS011;61071;51.618;19.388;2022-08-26T04:14:53;12.55;;;5.15;;
72926;SDS011;61071;51.618;19.388;2022-08-26T04:17:18;25.77;;;5.75;;
72926;SDS011;61071;51.618;19.388;2022-08-26T04:19:45;13.85;;;5.35;;
72926;SDS011;61071;51.618;19.388;2022-08-26T04:22:11;12.60;;;5.68;;
72926;SDS011;61071;51.618;19.388;2022-08-26T04:24:37;18.25;;;5.60;;
72926;SDS011;61071;51.618;19.388;2022-08-26T04:27:04;13.00;;;5.30;;
72926;SDS011;61071;51.618;19.388;2022-08-26T04:29:34;20.03;;;5.87;;
72926;SDS011;61071;51.618;19.388;2022-08-26T04:31:59;20.52;;;6.60;;
72926;SDS011;61071;51.618;19.388;2022-08-26T04:34:27;15.13;;;6.10;;
72926;SDS011;61071;51.618;19.388;2022-08-26T04:36:53;20.55;;;5.80;;
72926;SDS011;61071;51.618;19.388;2022-08-26T04:39:20;19.27;;;5.82;;
72926;SDS011;61071;51.618;19.388;2022-08-26T04:41:46;10.48;;;5.75;;
72926;SDS011;61071;51.618;19.388;2022-08-26T04:44:13;14.63;;;5.60;;
72926;SDS011;61071;51.618;19.388;2022-08-26T04:46:40;15.10;;;5.20;;
72926;SDS011;61071;51.618;19.388;2022-08-26T04:49:06;16.77;;;5.25;;
72926;SDS011;61071;51.618;19.388;2022-08-26T04:51:35;15.57;;;5.63;;
72926;SDS011;61071;51.618;19.388;2022-08-26T04:54:02;10.85;;;5.57;;
72926;SDS011;61071;51.618;19.388;2022-08-26T04:56:32;12.13;;;5.35;;
72926;SDS011;61071;51.618;19.388;2022-08-26T04:59:03;14.70;;;5.68;;
72926;SDS011;61071;51.618;19.388;2022-08-26T05:01:35;10.27;;;5.68;;
72926;SDS011;61071;51.618;19.388;2022-08-26T05:04:02;18.20;;;5.80;;
72926;SDS011;61071;51.618;19.388;2022-08-26T05:06:30;13.68;;;5.78;;
72926;SDS011;61071;51.618;19.388;2022-08-26T05:08:55;16.20;;;5.93;;
72926;SDS011;61071;51.618;19.388;2022-08-26T05:11:21;12.40;;;5.57;;
72926;SDS011;61071;51.618;19.388;2022-08-26T05:13:47;17.08;;;6.50;;
72926;SDS011;61071;51.618;19.388;2022-08-26T05:16:14;16.40;;;5.93;;
72926;SDS011;61071;51.618;19.388;2022-08-26T05:18:41;16.27;;;6.32;;
72926;SDS011;61071;51.618;19.388;2022-08-26T05:21:14;18.50;;;5.65;;
72926;SDS011;61071;51.618;19.388;2022-08-26T05:23:44;22.02;;;5.68;;
72926;SDS011;61071;51.618;19.388;2022-08-26T05:26:11;16.55;;;5.72;;
72926;SDS011;61071;51.618;19.388;2022-08-26T05:28:37;14.00;;;5.05;;
72926;SDS011;61071;51.618;19.388;2022-08-26T05:33:47;18.95;;;5.30;;
72926;SDS011;61071;51.618;19.388;2022-08-26T05:36:17;16.60;;;5.38;;
72926;SDS011;61071;51.618;19.388;2022-08-26T05:38:46;14.95;;;5.53;;
72926;SDS011;61071;51.618;19.388;2022-08-26T05:41:14;17.55;;;5.45;;
72926;SDS011;61071;51.618;19.388;2022-08-26T05:43:43;22.17;;;5.13;;
72926;SDS011;61071;51.618;19.388;2022-08-26T05:46:10;15.13;;;4.47;;
72926;SDS011;61071;51.618;19.388;2022-08-26T05:48:36;19.00;;;5.25;;
72926;SDS011;61071;51.618;19.388;2022-08-26T05:51:04;20.35;;;5.00;;
72926;SDS011;61071;51.618;19.388;2022-08-26T05:53:32;17.70;;;5.00;;
72926;SDS011;61071;51.618;19.388;2022-08-26T05:58:44;15.73;;;4.78;;
72926;SDS011;61071;51.618;19.388;2022-08-26T06:01:11;20.00;;;4.53;;
72926;SDS011;61071;51.618;19.388;2022-08-26T06:06:17;10.10;;;4.45;;
72926;SDS011;61071;51.618;19.388;2022-08-26T06:08:47;12.95;;;4.85;;
72926;SDS011;61071;51.618;19.388;2022-08-26T06:11:13;13.30;;;4.75;;
72926;SDS011;61071;51.618;19.388;2022-08-26T06:13:43;13.38;;;4.97;;
72926;SDS011;61071;51.618;19.388;2022-08-26T06:16:11;12.95;;;4.70;;
72926;SDS011;61071;51.618;19.388;2022-08-26T06:18:43;21.42;;;4.90;;
72926;SDS011;61071;51.618;19.388;2022-08-26T06:21:12;11.98;;;4.57;;
72926;SDS011;61071;51.618;19.388;2022-08-26T06:23:58;17.10;;;4.68;;
72926;SDS011;61071;51.618;19.388;2022-08-26T06:26:48;19.95;;;4.65;;
72926;SDS011;61071;51.618;19.388;2022-08-26T06:29:18;15.43;;;4.47;;
72926;SDS011;61071;51.618;19.388;2022-08-26T06:31:46;9.68;;;4.13;;
72926;SDS011;61071;51.618;19.388;2022-08-26T06:34:13;20.52;;;4.47;;
72926;SDS011;61071;51.618;19.388;2022-08-26T06:36:39;13.63;;;4.15;;
72926;SDS011;61071;51.618;19.388;2022-08-26T06:39:08;14.23;;;4.40;;
72926;SDS011;61071;51.618;19.388;2022-08-26T06:41:36;17.63;;;4.88;;
72926;SDS011;61071;51.618;19.388;2022-08-26T06:44:05;14.60;;;4.05;;
72926;SDS011;61071;51.618;19.388;2022-08-26T06:46:32;13.35;;;4.50;;
72926;SDS011;61071;51.618;19.388;2022-08-26T06:48:58;14.60;;;3.85;;
72926;SDS011;61071;51.618;19.388;2022-08-26T06:51:25;15.63;;;4.15;;
72926;SDS011;61071;51.618;19.388;2022-08-26T06:53:58;10.77;;;4.82;;
72926;SDS011;61071;51.618;19.388;2022-08-26T06:56:27;18.10;;;5.15;;
72926;SDS011;61071;51.618;19.388;2022-08-26T06:59:03;18.67;;;3.97;;
72926;SDS011;61071;51.618;19.388;2022-08-26T07:01:31;19.45;;;4.43;;
72926;SDS011;61071;51.618;19.388;2022-08-26T07:04:00;14.95;;;4.47;;
72926;SDS011;61071;51.618;19.388;2022-08-26T07:06:29;14.25;;;4.15;;
72926;SDS011;61071;51.618;19.388;2022-08-26T07:09:02;14.32;;;4.47;;
72926;SDS011;61071;51.618;19.388;2022-08-26T07:11:31;10.30;;;4.03;;
72926;SDS011;61071;51.618;19.388;2022-08-26T07:13:58;13.77;;;4.03;;
72926;SDS011;61071;51.618;19.388;2022-08-26T07:16:24;10.30;;;4.60;;
72926;SDS011;61071;51.618;19.388;2022-08-26T07:18:51;17.77;;;4.90;;
72926;SDS011;61071;51.618;19.388;2022-08-26T07:21:17;13.25;;;4.30;;
72926;SDS011;61071;51.618;19.388;2022-08-26T07:23:44;16.58;;;3.83;;
72926;SDS011;61071;51.618;19.388;2022-08-26T07:26:10;11.60;;;3.85;;
72926;SDS011;61071;51.618;19.388;2022-08-26T07:28:44;12.48;;;3.88;;
72926;SDS011;61071;51.618;19.388;2022-08-26T07:31:13;12.77;;;3.72;;
72926;SDS011;61071;51.618;19.388;2022-08-26T07:33:41;11.40;;;3.70;;
72926;SDS011;61071;51.618;19.388;2022-08-26T07:36:08;14.73;;;4.00;;
72926;SDS011;61071;51.618;19.388;2022-08-26T07:38:36;12.55;;;3.88;;
72926;SDS011;61071;51.618;19.388;2022-08-26T07:41:05;12.50;;;3.75;;
72926;SDS011;61071;51.618;19.388;2022-08-26T07:43:33;18.08;;;4.32;;
72926;SDS011;61071;51.618;19.388;2022-08-26T07:46:01;15.88;;;4.57;;
72926;SDS011;61071;51.618;19.388;2022-08-26T07:48:29;9.68;;;4.03;;
72926;SDS011;61071;51.618;19.388;2022-08-26T07:50:56;8.45;;;3.53;;
72926;SDS011;61071;51.618;19.388;2022-08-26T07:53:22;13.52;;;3.75;;
72926;SDS011;61071;51.618;19.388;2022-08-26T07:55:48;13.85;;;4.07;;
72926;SDS011;61071;51.618;19.388;2022-08-26T07:58:14;18.27;;;4.00;;
72926;SDS011;61071;51.618;19.388;2022-08-26T08:00:41;9.93;;;3.75;;
72926;SDS011;61071;51.618;19.388;2022-08-26T08:03:07;15.35;;;3.65;;
72926;SDS011;61071;51.618;19.388;2022-08-26T08:05:34;14.95;;;4.10;;
72926;SDS011;61071;51.618;19.388;2022-08-26T08:08:02;19.40;;;4.05;;
72926;SDS011;61071;51.618;19.388;2022-08-26T08:10:31;11.50;;;3.70;;
72926;SDS011;61071;51.618;19.388;2022-08-26T08:12:59;9.50;;;3.70;;
72926;SDS011;61071;51.618;19.388;2022-08-26T08:15:26;12.75;;;3.55;;
72926;SDS011;61071;51.618;19.388;2022-08-26T08:17:55;10.57;;;3.45;;
72926;SDS011;61071;51.618;19.388;2022-08-26T08:20:22;8.38;;;3.78;;
72926;SDS011;61071;51.618;19.388;2022-08-26T08:22:48;21.35;;;3.47;;
72926;SDS011;61071;51.618;19.388;2022-08-26T08:25:16;10.70;;;3.30;;
72926;SDS011;61071;51.618;19.388;2022-08-26T08:27:43;14.88;;;3.53;;
72926;SDS011;61071;51.618;19.388;2022-08-26T08:30:10;13.18;;;3.75;;
72926;SDS011;61071;51.618;19.388;2022-08-26T08:32:38;14.93;;;3.42;;
72926;SDS011;61071;51.618;19.388;2022-08-26T08:35:05;13.88;;;3.50;;
72926;SDS011;61071;51.618;19.388;2022-08-26T08:37:32;9.50;;;3.58;;
72926;SDS011;61071;51.618;19.388;2022-08-26T08:39:59;9.40;;;3.38;;
72926;SDS011;61071;51.618;19.388;2022-08-26T08:44:58;12.20;;;4.18;;
72926;SDS011;61071;51.618;19.388;2022-08-26T08:47:43;11.65;;;3.38;;
72926;SDS011;61071;51.618;19.388;2022-08-26T08:53:02;12.90;;;3.08;;
72926;SDS011;61071;51.618;19.388;2022-08-26T08:55:39;14.18;;;3.50;;
72926;SDS011;61071;51.618;19.388;2022-08-26T08:58:45;12.30;;;3.05;;
72926;SDS011;61071;51.618;19.388;2022-08-26T09:01:24;15.90;;;3.80;;
72926;SDS011;61071;51.618;19.388;2022-08-26T09:07:12;6.95;;;2.90;;
72926;SDS011;61071;51.618;19.388;2022-08-26T09:09:48;12.68;;;2.95;;
72926;SDS011;61071;51.618;19.388;2022-08-26T09:12:23;12.80;;;3.58;;
72926;SDS011;61071;51.618;19.388;2022-08-26T09:21:02;11.10;;;3.08;;
72926;SDS011;61071;51.618;19.388;2022-08-26T09:23:34;7.88;;;3.10;;
72926;SDS011;61071;51.618;19.388;2022-08-26T09:26:24;10.90;;;3.10;;
72926;SDS011;61071;51.618;19.388;2022-08-26T09:29:26;10.77;;;3.08;;
72926;SDS011;61071;51.618;19.388;2022-08-26T09:32:12;10.43;;;2.88;;
72926;SDS011;61071;51.618;19.388;2022-08-26T09:40:21;7.60;;;3.65;;
72926;SDS011;61071;51.618;19.388;2022-08-26T09:43:16;23.13;;;3.97;;
72926;SDS011;61071;51.618;19.388;2022-08-26T09:45:45;20.98;;;3.70;;
72926;SDS011;61071;51.618;19.388;2022-08-26T09:48:32;25.90;;;3.97;;
72926;SDS011;61071;51.618;19.388;2022-08-26T09:51:02;11.35;;;3.10;;
72926;SDS011;61071;51.618;19.388;2022-08-26T09:54:05;14.35;;;3.10;;
72926;SDS011;61071;51.618;19.388;2022-08-26T09:56:37;15.35;;;2.55;;
72926;SDS011;61071;51.618;19.388;2022-08-26T09:59:05;10.77;;;3.17;;
72926;SDS011;61071;51.618;19.388;2022-08-26T10:07:01;11.45;;;2.78;;
72926;SDS011;61071;51.618;19.388;2022-08-26T10:09:35;11.85;;;3.15;;
72926;SDS011;61071;51.618;19.388;2022-08-26T10:12:08;7.45;;;2.78;;
72926;SDS011;61071;51.618;19.388;2022-08-26T10:14:51;16.42;;;3.40;;
72926;SDS011;61071;51.618;19.388;2022-08-26T10:17:30;14.02;;;3.20;;
72926;SDS011;61071;51.618;19.388;2022-08-26T10:20:16;19.40;;;3.40;;
72926;SDS011;61071;51.618;19.388;2022-08-26T10:26:11;14.82;;;3.10;;
72926;SDS011;61071;51.618;19.388;2022-08-26T10:31:39;17.42;;;4.05;;
72926;SDS011;61071;51.618;19.388;2022-08-26T10:34:39;12.50;;;3.22;;
72926;SDS011;61071;51.618;19.388;2022-08-26T10:37:09;17.27;;;3.17;;
72926;SDS011;61071;51.618;19.388;2022-08-26T10:45:41;13.23;;;3.15;;
72926;SDS011;61071;51.618;19.388;2022-08-26T10:48:23;11.48;;;2.92;;
72926;SDS011;61071;51.618;19.388;2022-08-26T10:51:12;13.52;;;3.45;;
72926;SDS011;61071;51.618;19.388;2022-08-26T10:54:07;16.60;;;2.92;;
72926;SDS011;61071;51.618;19.388;2022-08-26T10:59:52;13.55;;;3.72;;
72926;SDS011;61071;51.618;19.388;2022-08-26T11:03:07;10.55;;;3.90;;
72926;SDS011;61071;51.618;19.388;2022-08-26T11:09:00;7.15;;;3.30;;
72926;SDS011;61071;51.618;19.388;2022-08-26T11:14:05;13.50;;;3.10;;
72926;SDS011;61071;51.618;19.388;2022-08-26T11:16:50;12.43;;;3.03;;
72926;SDS011;61071;51.618;19.388;2022-08-26T11:22:07;11.05;;;2.95;;
72926;SDS011;61071;51.618;19.388;2022-08-26T11:34:59;9.10;;;2.90;;
72926;SDS011;61071;51.618;19.388;2022-08-26T11:37:44;11.13;;;2.90;;
72926;SDS011;61071;51.618;19.388;2022-08-26T11:40:19;13.38;;;2.97;;
72926;SDS011;61071;51.618;19.388;2022-08-26T11:42:55;8.25;;;3.30;;
72926;SDS011;61071;51.618;19.388;2022-08-26T11:45:31;13.18;;;2.88;;
72926;SDS011;61071;51.618;19.388;2022-08-26T11:48:19;6.80;;;2.90;;
72926;SDS011;61071;51.618;19.388;2022-08-26T11:51:11;8.85;;;3.15;;
72926;SDS011;61071;51.618;19.388;2022-08-26T11:53:41;8.70;;;2.85;;
72926;SDS011;61071;51.618;19.388;2022-08-26T11:56:12;7.32;;;2.92;;
72926;SDS011;61071;51.618;19.388;2022-08-26T11:58:48;10.45;;;2.97;;
72926;SDS011;61071;51.618;19.388;2022-08-26T12:01:24;10.25;;;2.92;;
72926;SDS011;61071;51.618;19.388;2022-08-26T12:03:59;11.27;;;2.85;;
72926;SDS011;61071;51.618;19.388;2022-08-26T12:06:29;10.85;;;3.15;;
72926;SDS011;61071;51.618;19.388;2022-08-26T12:09:02;11.15;;;2.85;;
72926;SDS011;61071;51.618;19.388;2022-08-26T12:11:35;16.00;;;3.00;;
72926;SDS011;61071;51.618;19.388;2022-08-26T12:14:18;13.43;;;2.53;;
72926;SDS011;61071;51.618;19.388;2022-08-26T12:16:48;9.45;;;2.70;;
72926;SDS011;61071;51.618;19.388;2022-08-26T12:19:26;12.48;;;2.97;;
72926;SDS011;61071;51.618;19.388;2022-08-26T12:24:53;8.93;;;2.78;;
72926;SDS011;61071;51.618;19.388;2022-08-26T12:30:06;11.50;;;3.95;;
72926;SDS011;61071;51.618;19.388;2022-08-26T12:32:43;15.55;;;3.30;;
72926;SDS011;61071;51.618;19.388;2022-08-26T12:35:14;10.23;;;3.00;;
72926;SDS011;61071;51.618;19.388;2022-08-26T12:37:43;6.53;;;2.75;;
72926;SDS011;61071;51.618;19.388;2022-08-26T12:45:34;9.23;;;3.05;;
72926;SDS011;61071;51.618;19.388;2022-08-26T12:48:11;12.52;;;2.92;;
72926;SDS011;61071;51.618;19.388;2022-08-26T12:50:50;8.57;;;2.95;;
72926;SDS011;61071;51.618;19.388;2022-08-26T12:53:19;7.03;;;2.70;;
72926;SDS011;61071;51.618;19.388;2022-08-26T12:55:53;10.25;;;2.67;;
72926;SDS011;61071;51.618;19.388;2022-08-26T12:58:29;7.68;;;2.58;;
72926;SDS011;61071;51.618;19.388;2022-08-26T13:14:20;10.18;;;2.97;;
72926;SDS011;61071;51.618;19.388;2022-08-26T13:16:48;8.85;;;2.85;;
72926;SDS011;61071;51.618;19.388;2022-08-26T13:19:15;10.35;;;2.80;;
72926;SDS011;61071;51.618;19.388;2022-08-26T13:24:16;12.35;;;3.40;;
72926;SDS011;61071;51.618;19.388;2022-08-26T13:27:06;19.08;;;2.90;;
72926;SDS011;61071;51.618;19.388;2022-08-26T13:29:35;8.63;;;2.42;;
72926;SDS011;61071;51.618;19.388;2022-08-26T13:32:02;11.27;;;2.30;;
72926;SDS011;61071;51.618;19.388;2022-08-26T13:34:30;11.48;;;3.17;;
72926;SDS011;61071;51.618;19.388;2022-08-26T13:36:56;13.50;;;2.60;;
72926;SDS011;61071;51.618;19.388;2022-08-26T13:39:23;10.35;;;3.15;;
72926;SDS011;61071;51.618;19.388;2022-08-26T13:41:50;10.30;;;2.55;;
72926;SDS011;61071;51.618;19.388;2022-08-26T13:44:17;5.05;;;2.42;;
72926;SDS011;61071;51.618;19.388;2022-08-26T13:46:43;12.45;;;2.30;;
72926;SDS011;61071;51.618;19.388;2022-08-26T13:49:10;12.18;;;2.78;;
72926;SDS011;61071;51.618;19.388;2022-08-26T13:51:36;12.93;;;2.33;;
72926;SDS011;61071;51.618;19.388;2022-08-26T13:54:03;8.45;;;2.33;;
72926;SDS011;61071;51.618;19.388;2022-08-26T13:56:30;10.95;;;2.30;;
72926;SDS011;61071;51.618;19.388;2022-08-26T13:58:58;8.02;;;2.63;;
72926;SDS011;61071;51.618;19.388;2022-08-26T14:01:25;10.45;;;3.00;;
72926;SDS011;61071;51.618;19.388;2022-08-26T14:03:53;10.35;;;2.95;;
72926;SDS011;61071;51.618;19.388;2022-08-26T14:06:19;7.15;;;2.65;;
72926;SDS011;61071;51.618;19.388;2022-08-26T14:08:45;7.18;;;2.35;;
72926;SDS011;61071;51.618;19.388;2022-08-26T14:11:11;9.10;;;2.90;;
72926;SDS011;61071;51.618;19.388;2022-08-26T14:13:38;10.10;;;2.22;;
72926;SDS011;61071;51.618;19.388;2022-08-26T14:16:06;12.23;;;2.28;;
72926;SDS011;61071;51.618;19.388;2022-08-26T14:18:45;10.73;;;2.45;;
72926;SDS011;61071;51.618;19.388;2022-08-26T14:21:10;8.75;;;2.35;;
72926;SDS011;61071;51.618;19.388;2022-08-26T14:23:38;5.97;;;2.00;;
72926;SDS011;61071;51.618;19.388;2022-08-26T14:26:04;8.15;;;2.38;;
72926;SDS011;61071;51.618;19.388;2022-08-26T14:28:32;4.55;;;2.13;;
72926;SDS011;61071;51.618;19.388;2022-08-26T14:30:59;8.75;;;2.55;;
72926;SDS011;61071;51.618;19.388;2022-08-26T14:33:26;11.88;;;2.78;;
72926;SDS011;61071;51.618;19.388;2022-08-26T14:38:43;13.60;;;2.72;;
72926;SDS011;61071;51.618;19.388;2022-08-26T14:41:10;11.93;;;2.60;;
72926;SDS011;61071;51.618;19.388;2022-08-26T14:43:39;8.00;;;2.70;;
72926;SDS011;61071;51.618;19.388;2022-08-26T14:46:13;6.68;;;2.55;;
72926;SDS011;61071;51.618;19.388;2022-08-26T14:48:41;12.10;;;2.70;;
72926;SDS011;61071;51.618;19.388;2022-08-26T14:51:07;9.73;;;2.95;;
72926;SDS011;61071;51.618;19.388;2022-08-26T14:53:33;10.90;;;3.38;;
72926;SDS011;61071;51.618;19.388;2022-08-26T14:56:17;9.85;;;3.03;;
72926;SDS011;61071;51.618;19.388;2022-08-26T14:58:43;10.85;;;3.28;;
72926;SDS011;61071;51.618;19.388;2022-08-26T15:01:09;14.57;;;3.00;;
72926;SDS011;61071;51.618;19.388;2022-08-26T15:03:37;10.57;;;3.00;;
72926;SDS011;61071;51.618;19.388;2022-08-26T15:06:03;7.70;;;2.83;;
72926;SDS011;61071;51.618;19.388;2022-08-26T15:08:29;13.85;;;3.13;;
72926;SDS011;61071;51.618;19.388;2022-08-26T15:11:00;11.60;;;2.90;;
72926;SDS011;61071;51.618;19.388;2022-08-26T15:13:28;9.10;;;3.35;;
72926;SDS011;61071;51.618;19.388;2022-08-26T15:15:54;11.55;;;3.90;;
72926;SDS011;61071;51.618;19.388;2022-08-26T15:18:20;9.43;;;3.42;;
72926;SDS011;61071;51.618;19.388;2022-08-26T15:20:46;8.00;;;4.28;;
72926;SDS011;61071;51.618;19.388;2022-08-26T15:23:12;10.43;;;4.22;;
72926;SDS011;61071;51.618;19.388;2022-08-26T15:25:40;8.82;;;4.32;;
72926;SDS011;61071;51.618;19.388;2022-08-26T15:28:07;13.75;;;4.35;;
72926;SDS011;61071;51.618;19.388;2022-08-26T15:30:33;12.80;;;4.10;;
72926;SDS011;61071;51.618;19.388;2022-08-26T15:32:59;12.77;;;4.68;;
72926;SDS011;61071;51.618;19.388;2022-08-26T15:35:25;12.02;;;3.97;;
72926;SDS011;61071;51.618;19.388;2022-08-26T15:37:51;11.88;;;4.05;;
72926;SDS011;61071;51.618;19.388;2022-08-26T15:40:16;15.13;;;4.88;;
72926;SDS011;61071;51.618;19.388;2022-08-26T15:42:44;11.90;;;4.45;;
72926;SDS011;61071;51.618;19.388;2022-08-26T15:45:10;11.32;;;4.03;;
72926;SDS011;61071;51.618;19.388;2022-08-26T15:47:36;13.30;;;3.88;;
72926;SDS011;61071;51.618;19.388;2022-08-26T15:50:04;16.58;;;3.95;;
72926;SDS011;61071;51.618;19.388;2022-08-26T15:52:31;14.23;;;4.90;;
72926;SDS011;61071;51.618;19.388;2022-08-26T15:54:57;8.68;;;3.70;;
72926;SDS011;61071;51.618;19.388;2022-08-26T15:57:23;13.70;;;4.47;;
72926;SDS011;61071;51.618;19.388;2022-08-26T15:59:49;15.55;;;4.45;;
72926;SDS011;61071;51.618;19.388;2022-08-26T16:02:14;9.00;;;3.85;;
72926;SDS011;61071;51.618;19.388;2022-08-26T16:04:40;11.80;;;4.40;;
72926;SDS011;61071;51.618;19.388;2022-08-26T16:07:06;16.10;;;4.10;;
72926;SDS011;61071;51.618;19.388;2022-08-26T16:09:31;11.25;;;3.80;;
72926;SDS011;61071;51.618;19.388;2022-08-26T16:11:57;8.93;;;3.97;;
72926;SDS011;61071;51.618;19.388;2022-08-26T16:14:23;12.27;;;3.90;;
72926;SDS011;61071;51.618;19.388;2022-08-26T16:16:50;14.25;;;4.85;;
72926;SDS011;61071;51.618;19.388;2022-08-26T16:19:17;18.92;;;4.82;;
72926;SDS011;61071;51.618;19.388;2022-08-26T16:21:43;10.27;;;4.05;;